Weather

Rainfall Maps have ended for the season and will begin again on June 1st.

*Note: Some stations are located near irrigated fields and may also report irrigation

Forrest Carberry Carberry North Wawanesa Glenboro Glenora Treherne Gladstone Portage East High Bluff Elm Creek Carman Winkler Kuhl Farm Morris St.Adolphe Steinbach Selkirk Macdonald Shilo Rivers Somerset Reinland Altona Starbuck St.Pierre Winkler




St. Pierre - Historical Weather Data
Date Max Temp (°C) Min Temp (°C) Avg Temp (°C) Rain (mm) Avg RH (%)
4/24/2018 10.7 -5.0 3.9 0.0 57.0
4/23/2018 16.9 0.3 9.2 0.0 56.0
4/22/2018 17.1 4.7 11.8 0.0 57.0
4/21/2018 18.6 1.9 10.2 0.0 63.0
4/20/2018 15.4 -1.2 7.3 0.0 62.0
4/19/2018 14.7 -2.5 6.6 0.0 50.0
4/18/2018 13.7 -2.7 5.2 0.0 37.0
4/17/2018 13.3 -7.8 3.2 0.0 35.0
4/16/2018 9.5 -10.3 -0.3 0.0 47.0
4/15/2018 5.9 -6.6 -1.1 0.0 41.0
4/14/2018 4.6 -10.9 -2.5 0.0 47.0
4/13/2018 1.4 -10.2 -4.5 0.0 52.0
4/12/2018 2.2 -9.1 -2.4 1.7 74.0
4/11/2018 5.0 -8.3 -0.7 1.1 61.0
4/10/2018 3.9 -4.4 -0.3 0.0 71.0
4/9/2018 2.9 -13.2 -4.6 0.0 61.0
4/8/2018 0.5 -16.0 -7.2 0.0 52.0
4/7/2018 -3.5 -15.4 -9.2 0.0 60.0
4/6/2018 -5.5 -17.3 -11.5 0.0 66.0
4/5/2018 -1.8 -12.1 -6.5 0.2 61.0
4/4/2018 -0.4 -12.9 -6.1 0.0 65.0
4/3/2018 -4.7 -18.2 -11.1 0.0 54.0
4/2/2018 -7.8 -17.1 -12.4 0.0 53.0
4/1/2018 -0.4 -11.2 -6.8 0.0 61.0
3/31/2018 -7.3 -14.7 -10.7 0.0 58.0
3/30/2018 -8.2 -17.1 -12.0 0.0 57.0
3/29/2018 -4.8 -13.1 -8.1 0.0 67.0
3/28/2018 3.8 -7.4 -3.6 2.0 78.0
3/27/2018 6.7 -2.3 2.0 0.0 81.0
3/26/2018 2.3 -1.0 0.7 0.0 89.0
3/25/2018 2.1 -0.3 0.7 0.1 75.0
3/24/2018 2.0 -3.1 -0.2 0.0 63.0
3/23/2018 4.6 -3.1 1.1 0.0 65.0
3/22/2018 4.5 -0.8 1.2 0.0 85.0
3/21/2018 1.9 -5.9 -0.9 0.0 88.0
3/20/2018 0.0 -5.7 -2.4 0.3 88.0
3/19/2018 0.6 -3.9 -1.1 0.0 70.0
3/18/2018 2.5 -2.8 -0.3 0.0 83.0
3/17/2018 1.8 -11.6 -4.7 0.0 63.0
3/16/2018 1.1 -14.9 -6.2 0.0 58.0
3/15/2018 -2.3 -16.5 -8.7 0.0 71.0
3/14/2018 -0.8 -13.6 -6.9 0.0 82.0
3/13/2018 -0.2 -16.3 -7.8 0.0 77.0
3/12/2018 -2.8 -11.7 -7.3 0.0 77.0
3/11/2018 -1.3 -8.3 -4.5 0.0 81.0
3/10/2018 -1.1 -7.7 -4.1 0.0 73.0
3/9/2018 -5.4 -19.2 -13.0 0.0 84.0
3/8/2018 -5.2 -18.7 -12.5 0.0 85.0
3/7/2018 -7.6 -19.1 -13.8 0.0 81.0
3/6/2018 -1.5 -15.9 -8.8 0.0 71.0
3/5/2018 1.9 -1.6 -0.3 1.4 80.0
3/4/2018 4.3 -0.1 2.5 4.5 71.0
3/3/2018 6.3 -8.8 -0.2 0.7 64.0
3/2/2018 -1.2 -14.8 -7.4 0.0 81.0
3/1/2018 0.5 -16.0 -7.0 0.0 83.0
2/28/2018 -1.6 -9.8 -6.4 0.0 78.0
2/27/2018 -3.8 -13.8 -8.3 0.0 77.0
2/26/2018 -2.0 -13.6 -7.3 0.0 80.0
2/25/2018 -4.4 -13.1 -8.2 0.7 85.0
2/24/2018 -4.9 -14.9 -9.7 0.3 73.0
2/23/2018 -8.4 -16.8 -13.2 0.0 79.0
2/22/2018 -9.0 -18.3 -13.4 0.0 75.0
2/21/2018 -12.7 -21.3 -16.9 0.0 72.0
2/20/2018 -13.3 -17.2 -15.7 0.6 74.0
2/19/2018 -15.0 -23.5 -18.4 0.0 64.0
2/18/2018 -10.6 -20.6 -15.8 0.0 73.0
2/17/2018 -8.4 -19.1 -13.8 0.0 74.0
2/16/2018 -8.4 -19.3 -13.6 0.0 72.0
2/15/2018 -6.5 -22.2 -18.4 0.0 72.0
2/14/2018 0.8 -8.3 -4.4 0.0 79.0
2/13/2018 -4.5 -19.5 -10.6 0.0 77.0
2/12/2018 -16.5 -28.9 -22.9 0.0 70.0
2/11/2018 -14.8 -25.6 -18.2 0.0 77.0
2/10/2018 -13.2 -22.8 -17.8 0.0 74.0
2/9/2018 -12.7 -28.1 -20.4 0.0 72.0
2/8/2018 -16.9 -26.5 -21.6 0.0 76.0
2/7/2018 -16.2 -27.1 -21.6 0.0 77.0
2/6/2018 -14.4 -26.0 -20.5 0.0 75.0
2/5/2018 -15.3 -25.4 -18.9 0.0 70.0
2/4/2018 -15.3 -29.1 -21.5 0.0 68.0
2/3/2018 -21.1 -28.7 -23.7 0.1 76.0
2/2/2018 -17.2 -26.3 -21.5 0.9 77.0
2/1/2018 -20.2 -26.4 -22.8 0.0 74.0
1/31/2018 -12.3 -20.7 -18.0 0.1 69.0
1/30/2018 -1.9 -21.2 -11.6 0.2 77.0
1/29/2018 -18.0 -24.6 -20.7 0.0 76.0
1/28/2018 -19.4 -23.4 -20.9 0.0 77.0
1/27/2018 -7.6 -19.9 -13.9 0.4 81.0
1/26/2018 -2.3 -7.7 -3.7 0.0 89.0
1/25/2018 -2.5 -9.9 -5.2 0.0 85.0
1/24/2018 -4.1 -10.3 -7.6 0.0 87.0
1/23/2018 -5.6 -7.7 -6.7 0.0 85.0
1/22/2018 -3.7 -7.3 -5.6 0.0 81.0
1/21/2018 -6.8 -9.4 -7.4 0.0 86.0
1/20/2018 -0.8 -11.6 -5.9 0.0 91.0
1/19/2018 3.9 -4.7 0.4 0.0 84.0
1/18/2018 1.7 -7.4 -4.4 0.1 76.0
1/17/2018 1.0 -14.9 -8.0 0.0 75.0
1/16/2018 -14.4 -28.3 -20.5 0.0 72.0
1/15/2018 -22.4 -27.8 -25.2 0.0 74.0
1/14/2018 -14.8 -22.7 -18.1 0.4 77.0
1/13/2018 -20.8 -29.9 -24.9 0.0 72.0
1/12/2018 -20.8 -30.5 -26.3 0.0 72.0
1/11/2018 -19.2 -28.8 -23.4 1.0 74.0
1/10/2018 0.7 -19.4 -9.5 0.7 82.0
1/9/2018 1.7 -13.9 -3.6 0.0 72.0
1/8/2018 -3.9 -14.9 -9.8 0.0 78.0
1/7/2018 -1.3 -9.2 -5.7 0.0 84.0
1/6/2018 -9.2 -23.4 -14.8 0.0 71.0
1/5/2018 -18.9 -31.3 -25.1 0.0 71.0
1/4/2018 -19.5 -28.6 -25.3 0.0 74.0
1/3/2018 -21.7 -26.4 -23.3 0.0 74.0
1/2/2018 -13.2 -22.7 -18.1 0.0 73.0
1/1/2018 -20.9 -29.6 -24.6 0.0 71.0
12/31/2017 -25.1 -34.0 -29.8 0.0 71.0
12/30/2017 -29.0 -33.4 -31.4 0.0 71.0
12/29/2017 -24.4 -30.4 -27.5 0.0 74.0
12/28/2017 -15.9 -27.8 -20.6 0.2 76.0
12/27/2017 -21.5 -31.1 -26.5 0.0 68.0
12/26/2017 -25.5 -30.8 -27.8 0.0 69.0
12/25/2017 -26.2 -29.7 -28.1 0.0 68.0
12/24/2017 -21.1 -27.1 -24.6 0.0 74.0
12/23/2017 -8.5 -26.1 -15.3 0.3 79.0
12/22/2017 -9.7 -15.7 -11.9 0.3 82.0
12/21/2017 -15.3 -24.6 -19.2 0.0 79.0
12/20/2017 -14.8 -22.5 -17.8 0.0 80.0
12/19/2017 -2.9 -19.5 -10.4 0.1 72.0
12/18/2017 0.9 -3.0 -1.3 0.0 82.0
12/17/2017 -2.4 -10.7 -7.1 0.0 83.0
12/16/2017 -7.1 -11.5 -9.6 0.6 86.0
12/15/2017 -9.3 -16.1 -11.4 0.6 82.0
12/14/2017 -8.2 -11.2 -9.5 0.0 85.0
12/13/2017 -6.1 -10.1 -8.0 0.0 88.0
12/12/2017 -3.6 -17.8 -8.5 0.0 88.0
12/11/2017 -1.4 -18.5 -10.4 0.2 84.0
12/10/2017 -3.7 -8.7 -6.3 1.4 86.0
12/9/2017 -5.0 -10.9 -8.1 0.0 82.0
12/8/2017 0.0 -9.2 -6.6 0.5 83.0
12/7/2017 -4.2 -15.6 -9.1 0.0 81.0
12/6/2017 -12.2 -17.0 -14.3 0.0 76.0
12/5/2017 -11.1 -16.4 -13.5 0.0 79.0
12/4/2017 0.0 -13.2 -4.2 1.6 90.0
12/3/2017 0.2 -7.2 -2.4 0.0 86.0
12/2/2017 3.0 -8.1 -2.0 0.0 87.0
12/1/2017 0.6 -5.5 -2.1 0.0 89.0
11/30/2017 1.1 -3.5 -0.3 0.0 85.0
11/29/2017 5.8 -8.0 0.8 1.0 65.0
11/28/2017 2.9 -11.3 -4.1 0.2 70.0
11/27/2017 7.5 -5.0 2.1 0.8 77.0
11/26/2017 -2.2 -7.4 -5.5 0.0 84.0
11/25/2017 -2.3 -12.9 -7.8 0.0 77.0
11/24/2017 5.1 -7.9 1.1 0.0 82.0
11/23/2017 4.2 -10.8 -3.5 0.0 85.0
11/22/2017 -5.9 -13.7 -9.7 0.2 84.0
11/21/2017 -6.5 -12.9 -9.8 0.0 77.0
11/20/2017 3.3 -9.1 -2.6 0.2 79.0
11/19/2017 -3.4 -14.2 -8.9 0.0 77.0
11/18/2017 -8.4 -13.0 -10.3 0.0 76.0
11/17/2017 0.2 -11.9 -5.5 0.7 80.0
11/16/2017 0.0 -6.9 -4.7 0.0 80.0
11/15/2017 -2.3 -6.2 -5.2 0.1 87.0
11/14/2017 1.5 -4.6 -0.3 0.0 93.0
11/13/2017 1.4 -9.6 -3.2 0.0 81.0
11/12/2017 -3.5 -9.9 -5.5 0.0 84.0
11/11/2017 -4.1 -9.8 -5.9 0.2 85.0
11/10/2017 -5.8 -21.3 -11.8 0.0 68.0
11/9/2017 -12.2 -22.7 -18.1 0.0 78.0
11/8/2017 -8.4 -16.5 -10.8 0.4 84.0
11/7/2017 -5.5 -18.6 -12.1 0.0 80.0
11/6/2017 -7.6 -16.7 -12.6 0.0 80.0
11/5/2017 -3.7 -14.9 -7.0 0.2 81.0
11/4/2017 0.1 -5.8 -2.4 3.0 91.0
11/3/2017 -0.8 -9.7 -4.9 0.0 81.0
11/2/2017 1.0 -5.5 -1.9 0.0 85.0
11/1/2017 0.8 -4.1 -1.7 0.3 83.0
10/31/2017 -1.4 -8.7 -4.5 0.0 79.0